Time;durP1;ratioP1;P1;durP2;ratioP2;P2;SDS_P1;SDS_P2;PMS_P1;PMS_P2;Temp;Humidity;BMP_temperature;BMP_pressure;BME280_temperature;BME280_humidity;BME280_pressure;Samples;Min_cycle;Max_cycle;Signal;HPM_P1;HPM_P2
2020/12/07 00:02:09;;;;;;;11.27;8.07;;;;;;;20.57;39.72;98251.66;4994771;28;20034;-78
2020/12/07 00:04:34;;;;;;;10.35;7.72;;;;;;;20.57;39.79;98256.91;5002164;28;20517;-77
2020/12/07 00:06:59;;;;;;;10.30;7.78;;;;;;;20.56;39.70;98250.81;5009777;28;20035;-77
2020/12/07 00:09:25;;;;;;;11.75;8.32;;;;;;;20.56;39.50;98250.81;5008366;28;20038;-76
2020/12/07 00:11:50;;;;;;;10.40;8.20;;;;;;;20.56;39.59;98258.72;4993721;28;20177;-80
2020/12/07 00:14:16;;;;;;;9.85;8.38;;;;;;;20.56;39.78;98252.56;4995038;28;20434;-77
2020/12/07 00:16:45;;;;;;;11.18;8.75;;;;;;;20.56;39.42;98256.06;4994442;28;20102;-77
2020/12/07 00:19:11;;;;;;;10.27;8.57;;;;;;;20.57;39.58;98246.38;4996786;28;20036;-78
2020/12/07 00:21:37;;;;;;;10.63;8.18;;;;;;;20.56;39.47;98253.44;5012917;28;20041;-78
2020/12/07 00:24:03;;;;;;;11.82;8.07;;;;;;;20.54;39.59;98247.41;5014555;28;20038;-78
2020/12/07 00:26:28;;;;;;;10.48;8.00;;;;;;;20.55;39.72;98246.47;5009756;28;20027;-76
2020/12/07 00:28:58;;;;;;;10.68;8.25;;;;;;;20.56;39.75;98247.31;4993631;28;20026;-78
2020/12/07 00:31:24;;;;;;;11.15;8.65;;;;;;;20.56;39.59;98248.19;4994685;28;20046;-76
2020/12/07 00:33:49;;;;;;;10.75;8.13;;;;;;;20.54;39.76;98240.38;4993285;28;20030;-77
2020/12/07 00:36:15;;;;;;;10.82;8.00;;;;;;;20.54;39.75;98236.88;4994434;28;20031;-78
2020/12/07 00:38:40;;;;;;;10.55;8.02;;;;;;;20.53;39.66;98228.16;4994755;28;20042;-79
2020/12/07 00:41:06;;;;;;;9.80;8.10;;;;;;;20.55;39.47;98228.06;4993195;28;20121;-78
2020/12/07 00:43:31;;;;;;;10.77;8.07;;;;;;;20.53;39.40;98216.75;4997676;28;20511;-80
2020/12/07 00:45:57;;;;;;;10.18;8.45;;;;;;;20.55;39.66;98214.91;5012414;28;20037;-79
2020/12/07 00:48:22;;;;;;;11.55;8.38;;;;;;;20.53;39.63;98211.50;5009801;28;20049;-79
2020/12/07 00:50:47;;;;;;;10.90;8.70;;;;;;;20.52;39.36;98207.16;4993904;28;20399;-77
2020/12/07 00:53:13;;;;;;;10.38;8.40;;;;;;;20.52;39.52;98200.16;5009025;28;20042;-78
2020/12/07 00:55:38;;;;;;;10.55;8.60;;;;;;;20.52;39.75;98197.50;4994195;28;20057;-78
2020/12/07 00:58:03;;;;;;;11.38;8.65;;;;;;;20.54;39.48;98197.41;4993966;28;20101;-79
2020/12/07 01:00:29;;;;;;;9.88;8.35;;;;;;;20.53;39.75;98201.84;4993005;28;20491;-77
2020/12/07 01:02:54;;;;;;;11.15;8.23;;;;;;;20.52;39.48;98197.50;4976985;28;20091;-77
2020/12/07 01:05:20;;;;;;;12.20;8.35;;;;;;;20.53;39.67;98198.34;4994883;28;20053;-78
2020/12/07 01:07:45;;;;;;;12.27;8.90;;;;;;;20.51;39.63;98203.72;4976909;28;20039;-77
2020/12/07 01:10:11;;;;;;;12.68;9.13;;;;;;;20.51;39.76;98192.31;4992679;28;20100;-76
2020/12/07 01:12:36;;;;;;;10.70;8.60;;;;;;;20.53;39.54;98195.72;5000706;28;20050;-77
2020/12/07 01:15:02;;;;;;;12.57;9.05;;;;;;;20.52;39.46;98183.50;4993973;28;20380;-78
2020/12/07 01:17:27;;;;;;;10.13;8.25;;;;;;;20.54;39.72;98190.38;4994259;28;20045;-78
2020/12/07 01:19:54;;;;;;;9.02;7.60;;;;;;;20.54;39.53;98189.53;4998157;28;20042;-79
2020/12/07 01:22:19;;;;;;;10.20;7.78;;;;;;;20.54;39.65;98192.16;5028500;28;20176;-78
2020/12/07 01:24:45;;;;;;;10.75;8.38;;;;;;;20.51;39.86;98190.56;5013363;28;20554;-79
2020/12/07 01:27:10;;;;;;;10.32;9.00;;;;;;;20.53;39.60;98188.69;5012295;28;20038;-78
2020/12/07 01:29:35;;;;;;;11.25;8.60;;;;;;;20.51;39.47;98185.28;5011500;28;20048;-79
2020/12/07 01:32:01;;;;;;;11.00;7.97;;;;;;;20.54;39.68;98189.53;5013484;28;20041;-79
2020/12/07 01:34:26;;;;;;;11.02;8.55;;;;;;;20.52;39.62;98194.00;5013109;28;20108;-77
2020/12/07 01:36:52;;;;;;;11.05;8.88;;;;;;;20.53;39.63;98193.09;5010511;28;20066;-75
2020/12/07 01:39:17;;;;;;;11.48;7.88;;;;;;;20.52;39.66;98184.34;5015351;28;20034;-79
2020/12/07 01:41:42;;;;;;;10.68;8.32;;;;;;;20.52;39.63;98179.09;5011636;28;20045;-76
2020/12/07 01:44:08;;;;;;;8.85;7.60;;;;;;;20.53;39.56;98182.56;5011481;28;20172;-78
2020/12/07 01:46:34;;;;;;;10.23;8.70;;;;;;;20.52;39.27;98178.22;5012010;28;20087;-77
2020/12/07 01:49:00;;;;;;;10.70;7.90;;;;;;;20.53;39.60;98186.06;5003317;28;20043;-78
2020/12/07 01:51:26;;;;;;;11.35;8.52;;;;;;;20.53;39.40;98185.19;5004386;28;20125;-79
2020/12/07 01:53:52;;;;;;;11.65;8.48;;;;;;;20.52;39.56;98188.75;5005306;28;20030;-79
2020/12/07 01:56:27;;;;;;;9.20;8.02;;;;;;;20.50;39.51;98187.97;4995740;28;20037;-79
2020/12/07 01:58:53;;;;;;;10.15;8.52;;;;;;;20.52;39.61;98191.38;5012788;28;20042;-78
2020/12/07 02:01:19;;;;;;;10.23;8.20;;;;;;;20.51;39.58;98187.91;5011279;28;20394;-79
2020/12/07 02:03:44;;;;;;;10.75;8.27;;;;;;;20.52;39.44;98188.75;5012540;28;20049;-79
2020/12/07 02:06:10;;;;;;;9.32;7.97;;;;;;;20.52;39.38;98196.66;4992603;28;20029;-80
2020/12/07 02:08:36;;;;;;;11.48;8.18;;;;;;;20.53;39.61;98195.72;5010558;28;20114;-79
2020/12/07 02:11:02;;;;;;;11.40;8.30;;;;;;;20.51;39.49;98185.28;4994785;28;20164;-78
2020/12/07 02:13:28;;;;;;;10.25;8.15;;;;;;;20.51;39.57;98187.91;5011365;28;20044;-79
2020/12/07 02:15:54;;;;;;;11.40;9.07;;;;;;;20.52;39.40;98184.34;5011344;28;20030;-78
2020/12/07 02:18:19;;;;;;;11.15;8.38;;;;;;;20.50;39.45;98182.72;5010933;28;20033;-78
2020/12/07 02:20:49;;;;;;;10.77;8.52;;;;;;;20.52;39.57;98186.13;4998507;28;20038;-76
2020/12/07 02:23:15;;;;;;;13.23;8.70;;;;;;;20.52;39.73;98188.75;4991830;28;20518;-77
2020/12/07 02:25:41;;;;;;;13.02;8.57;;;;;;;20.52;39.38;98196.66;5007326;28;20439;-76
2020/12/07 02:28:06;;;;;;;10.65;8.10;;;;;;;20.52;39.57;98187.00;4991622;28;20089;-78
2020/12/07 02:30:32;;;;;;;10.20;8.55;;;;;;;20.51;39.35;98182.66;4991048;28;20034;-75
2020/12/07 02:32:57;;;;;;;9.20;7.68;;;;;;;20.53;39.45;98177.31;4992505;28;20081;-78
2020/12/07 02:35:22;;;;;;;10.02;8.25;;;;;;;20.51;39.49;98169.50;4998896;28;20100;-78
2020/12/07 02:37:48;;;;;;;9.30;7.90;;;;;;;20.52;39.61;98180.84;5007772;28;20034;-79
2020/12/07 02:40:14;;;;;;;10.40;8.48;;;;;;;20.52;39.36;98178.22;4992636;28;20530;-78
2020/12/07 02:42:40;;;;;;;10.77;8.20;;;;;;;20.51;39.58;98174.75;4992267;28;20384;-78
2020/12/07 02:45:11;;;;;;;8.63;7.63;;;;;;;20.50;39.62;98169.56;4991323;28;20049;-78
2020/12/07 02:47:37;;;;;;;9.75;8.02;;;;;;;20.50;39.30;98153.78;4991398;28;20042;-79
2020/12/07 02:50:05;;;;;;;11.75;8.43;;;;;;;20.52;39.43;98151.91;4992369;28;20454;-79
2020/12/07 02:52:31;;;;;;;10.38;7.40;;;;;;;20.52;39.33;98152.78;5007729;28;20073;-79
2020/12/07 02:54:58;;;;;;;9.75;7.18;;;;;;;20.49;39.46;98155.56;4991422;28;20038;-79
2020/12/07 02:57:24;;;;;;;8.23;7.25;;;;;;;20.51;39.34;98158.13;4974309;28;20030;-77
2020/12/07 02:59:50;;;;;;;8.38;7.15;;;;;;;20.50;39.38;98159.03;4977417;28;20518;-79
2020/12/07 03:02:16;;;;;;;10.32;7.65;;;;;;;20.51;39.41;98148.44;4974635;28;20505;-78
2020/12/07 03:04:42;;;;;;;9.80;7.85;;;;;;;20.49;39.33;98154.72;4975037;28;20038;-78
2020/12/07 03:07:08;;;;;;;8.82;7.47;;;;;;;20.51;39.38;98158.13;4990973;28;20041;-79
2020/12/07 03:09:33;;;;;;;7.88;6.95;;;;;;;20.52;39.50;98154.56;4990694;28;20038;-78
2020/12/07 03:11:59;;;;;;;8.73;7.10;;;;;;;20.49;39.39;98152.94;5007033;28;20042;-80
2020/12/07 03:14:25;;;;;;;8.38;7.10;;;;;;;20.51;39.49;98160.75;4991958;28;20126;-76
2020/12/07 03:16:51;;;;;;;7.30;6.60;;;;;;;20.51;39.30;98168.63;4991091;28;20030;-78
2020/12/07 03:19:17;;;;;;;9.05;7.05;;;;;;;20.53;39.34;98166.78;4990884;28;20046;-79
2020/12/07 03:21:42;;;;;;;7.78;6.85;;;;;;;20.51;39.64;98139.69;4990908;28;20045;-78
2020/12/07 03:24:08;;;;;;;7.10;6.18;;;;;;;20.52;39.29;98141.41;4990947;28;20126;-78
2020/12/07 03:26:34;;;;;;;9.40;6.55;;;;;;;20.51;39.45;98147.59;4993266;28;20117;-77
2020/12/07 03:29:02;;;;;;;6.97;6.20;;;;;;;20.51;39.27;98151.09;4991447;28;20038;-79
2020/12/07 03:31:28;;;;;;;8.98;6.72;;;;;;;20.48;39.56;98153.88;5006918;28;20038;-76
2020/12/07 03:33:53;;;;;;;7.28;6.32;;;;;;;20.51;39.46;98158.97;5011548;28;20444;-79
2020/12/07 03:36:19;;;;;;;7.93;5.50;;;;;;;20.51;39.29;98156.34;5011196;28;20030;-76
2020/12/07 03:38:44;;;;;;;6.65;5.90;;;;;;;20.49;39.49;98152.94;5011885;28;20100;-77
2020/12/07 03:41:09;;;;;;;7.28;6.22;;;;;;;20.49;39.32;98152.09;5011155;28;20065;-79
2020/12/07 03:43:35;;;;;;;7.07;6.30;;;;;;;20.49;39.41;98158.22;5012886;28;20046;-80
2020/12/07 03:46:00;;;;;;;7.32;6.10;;;;;;;20.50;39.36;98156.41;5011177;28;20049;-78
2020/12/07 03:48:26;;;;;;;7.38;5.93;;;;;;;20.48;39.58;98147.75;5010741;28;20048;-78
2020/12/07 03:50:51;;;;;;;7.13;5.70;;;;;;;20.49;39.45;98149.44;4994742;28;20050;-76
2020/12/07 03:53:16;;;;;;;7.40;5.70;;;;;;;20.48;39.38;98148.63;5012487;28;20049;-78
2020/12/07 03:55:42;;;;;;;7.15;5.45;;;;;;;20.49;39.55;98147.69;5014110;28;20081;-77
2020/12/07 03:58:07;;;;;;;7.93;5.68;;;;;;;20.51;39.36;98142.31;5011402;28;20030;-75
2020/12/07 04:00:33;;;;;;;8.32;5.97;;;;;;;20.49;39.32;98139.78;5012834;28;20046;-78
2020/12/07 04:03:01;;;;;;;7.18;5.97;;;;;;;20.49;39.24;98137.16;5013838;28;20049;-80
2020/12/07 04:05:31;;;;;;;8.00;5.95;;;;;;;20.50;39.28;98140.63;5012846;28;20426;-78
2020/12/07 04:07:57;;;;;;;6.85;5.68;;;;;;;20.49;39.22;98134.53;5013938;28;20100;-79
2020/12/07 04:10:22;;;;;;;7.10;5.72;;;;;;;20.51;39.31;98132.66;5011950;28;20446;-79
2020/12/07 04:12:47;;;;;;;6.70;5.55;;;;;;;20.49;39.23;98126.63;5014152;28;20037;-79
2020/12/07 04:15:13;;;;;;;6.07;5.30;;;;;;;20.50;39.37;98130.09;5013591;28;20038;-80
2020/12/07 04:17:38;;;;;;;7.32;5.90;;;;;;;20.49;39.15;98131.03;5008812;28;20102;-79
2020/12/07 04:20:04;;;;;;;5.55;4.95;;;;;;;20.48;39.23;98135.47;4994305;28;20026;-78
2020/12/07 04:22:30;;;;;;;6.90;5.22;;;;;;;20.52;39.20;98130.88;4995306;28;20122;-76
2020/12/07 04:24:55;;;;;;;8.82;5.95;;;;;;;20.49;39.10;98139.78;4993944;28;20084;-78
2020/12/07 04:27:21;;;;;;;6.57;5.60;;;;;;;20.48;39.31;98142.50;4992850;28;20038;-75
2020/12/07 04:29:46;;;;;;;7.97;5.82;;;;;;;20.50;39.21;98145.88;4997253;28;20037;-78
2020/12/07 04:32:11;;;;;;;6.40;5.35;;;;;;;20.48;39.36;98138.09;5014734;28;20083;-79
2020/12/07 04:34:37;;;;;;;6.32;5.15;;;;;;;20.50;39.28;98148.53;5013510;28;20034;-79
2020/12/07 04:37:02;;;;;;;7.43;5.47;;;;;;;20.49;39.32;98147.69;5008373;28;20121;-79
2020/12/07 04:39:28;;;;;;;6.95;5.13;;;;;;;20.49;39.15;98145.06;4994499;28;20453;-76
2020/12/07 04:41:53;;;;;;;7.07;4.85;;;;;;;20.49;39.09;98145.06;4992593;28;20027;-77
2020/12/07 04:44:18;;;;;;;6.72;5.72;;;;;;;20.48;39.32;98148.63;4994852;28;20449;-77
2020/12/07 04:46:46;;;;;;;6.18;4.97;;;;;;;20.49;39.44;98141.56;4994858;28;20035;-77
2020/12/07 04:49:14;;;;;;;6.53;4.85;;;;;;;20.48;39.23;98147.75;4992711;28;20063;-78
2020/12/07 04:51:39;;;;;;;6.63;4.95;;;;;;;20.49;39.15;98134.53;5004160;28;20029;-77
2020/12/07 04:54:06;;;;;;;7.40;5.15;;;;;;;20.50;39.08;98145.88;5020812;28;20038;-78
2020/12/07 04:56:33;;;;;;;6.75;5.30;;;;;;;20.50;39.18;98143.25;5012438;28;20038;-77
2020/12/07 04:59:00;;;;;;;6.13;4.72;;;;;;;20.48;39.24;98137.22;5012367;28;20038;-79
2020/12/07 05:01:25;;;;;;;7.78;4.80;;;;;;;20.46;39.11;98134.69;5010899;28;20046;-77
2020/12/07 05:03:51;;;;;;;6.28;4.82;;;;;;;20.47;39.24;98135.56;5014280;28;20045;-79
2020/12/07 05:06:19;;;;;;;7.10;5.20;;;;;;;20.45;39.34;98134.78;5013857;28;20112;-76
2020/12/07 05:08:45;;;;;;;5.68;5.00;;;;;;;20.45;39.25;98129.53;5012282;28;20413;-78
2020/12/07 05:11:10;;;;;;;7.10;5.45;;;;;;;20.46;39.18;98126.81;5011661;28;20034;-80
2020/12/07 05:13:40;;;;;;;5.22;4.35;;;;;;;20.47;39.25;98130.28;5011285;28;20045;-81
2020/12/07 05:16:06;;;;;;;5.25;4.35;;;;;;;20.47;38.96;98130.28;4996151;28;20064;-78
2020/12/07 05:18:35;;;;;;;6.18;5.15;;;;;;;20.47;39.24;98135.56;5013639;28;20073;-76
2020/12/07 05:21:03;;;;;;;5.78;4.30;;;;;;;20.48;39.09;98139.84;5009676;28;20030;-76
2020/12/07 05:23:33;;;;;;;5.75;4.50;;;;;;;20.48;39.18;98139.84;5012430;28;20052;-78
2020/12/07 05:26:01;;;;;;;6.07;4.85;;;;;;;20.48;39.12;98137.22;5013548;28;20120;-78
2020/12/07 05:28:36;;;;;;;5.63;4.90;;;;;;;20.47;39.17;98146.09;5011996;28;20038;-77
2020/12/07 05:31:02;;;;;;;6.22;4.85;;;;;;;20.47;39.62;98132.94;5012201;28;20069;-80
2020/12/07 05:33:31;;;;;;;5.50;4.45;;;;;;;20.48;39.25;98124.06;5012340;28;20033;-77
2020/12/07 05:35:57;;;;;;;5.88;4.80;;;;;;;20.49;39.04;98123.13;5010498;28;20046;-77
2020/12/07 05:38:31;;;;;;;5.53;4.32;;;;;;;20.45;39.18;98121.63;5012147;28;20061;-79
2020/12/07 05:41:00;;;;;;;4.85;3.95;;;;;;;20.46;39.04;98124.16;5006164;28;20034;-79
2020/12/07 05:43:27;;;;;;;4.85;4.25;;;;;;;20.47;39.04;98125.88;4992134;28;20046;-78
2020/12/07 05:45:57;;;;;;;6.10;4.93;;;;;;;20.45;38.98;98119.84;4975296;28;20038;-78
2020/12/07 05:48:27;;;;;;;6.45;4.72;;;;;;;20.47;39.07;98119.78;5000519;28;20069;-79
2020/12/07 05:50:55;;;;;;;5.60;4.55;;;;;;;20.46;38.91;98129.44;4997832;28;20046;-79
2020/12/07 05:53:23;;;;;;;5.57;4.55;;;;;;;20.48;39.06;98134.59;4993525;28;20046;-79
2020/12/07 05:55:48;;;;;;;6.30;4.82;;;;;;;20.47;39.07;98132.94;4975804;28;20048;-76
2020/12/07 05:58:19;;;;;;;5.47;4.32;;;;;;;20.46;39.24;98133.84;4993263;28;20042;-76
2020/12/07 06:00:46;;;;;;;6.05;4.70;;;;;;;20.46;39.20;98126.81;4991978;28;20026;-79
2020/12/07 06:03:17;;;;;;;5.43;4.82;;;;;;;20.47;38.88;98127.66;4993179;28;20042;-79
2020/12/07 06:05:46;;;;;;;5.03;4.30;;;;;;;20.47;38.86;98125.88;4991878;28;20034;-78
2020/12/07 06:08:18;;;;;;;5.25;4.20;;;;;;;20.47;39.13;98128.50;4992196;28;20038;-78
2020/12/07 06:10:49;;;;;;;6.10;4.70;;;;;;;20.47;39.17;98125.88;4998349;28;20031;-75
2020/12/07 06:13:19;;;;;;;6.00;4.93;;;;;;;20.47;39.20;98117.16;4991021;28;20042;-76
2020/12/07 06:15:46;;;;;;;5.57;4.10;;;;;;;20.48;39.11;98119.69;5006078;28;20046;-78
2020/12/07 06:18:32;;;;;;;6.75;4.50;;;;;;;20.46;39.05;98120.72;5005861;28;20033;-78
2020/12/07 06:21:04;;;;;;;4.93;3.88;;;;;;;20.47;39.34;98131.13;5012537;28;20061;-79
2020/12/07 06:23:43;;;;;;;5.38;4.18;;;;;;;20.48;39.00;98127.56;5012220;28;20048;-76
2020/12/07 06:26:11;;;;;;;6.15;4.50;;;;;;;20.48;39.12;98139.84;5011319;28;20111;-78
2020/12/07 06:28:45;;;;;;;5.50;4.53;;;;;;;20.48;39.03;98142.50;5009041;28;20079;-80
2020/12/07 06:31:13;;;;;;;7.35;4.55;;;;;;;20.48;38.92;98145.13;4998172;28;20025;-73
2020/12/07 06:33:48;;;;;;;6.15;4.75;;;;;;;20.47;39.27;98154.81;5003161;28;20114;-79
2020/12/07 06:36:33;;;;;;;8.65;4.95;;;;;;;20.51;39.20;98161.59;5009811;28;20080;-77
2020/12/07 06:39:09;;;;;;;7.47;4.10;;;;;;;20.52;39.07;98160.69;5010759;28;20025;-75
2020/12/07 06:41:36;;;;;;;13.00;6.47;;;;;;;20.57;39.35;98167.44;4994419;28;20079;-77
2020/12/07 06:44:05;;;;;;;7.93;5.07;;;;;;;20.59;39.31;98171.72;5011930;28;20042;-74
2020/12/07 06:46:52;;;;;;;11.57;4.68;;;;;;;20.60;39.10;98177.81;5010826;28;20042;-77
2020/12/07 06:49:23;;;;;;;9.05;4.68;;;;;;;20.60;39.30;98168.16;5001376;28;20121;-74
2020/12/07 06:51:55;;;;;;;11.35;5.13;;;;;;;20.64;39.21;98172.28;4991301;28;20057;-72
2020/12/07 06:57:24;;;;;;;;;;;;;;;20.65;39.20;98178.41;5000990;28;20041;-73
2020/12/07 06:59:56;;;;;;;;;;;;;;;20.63;39.16;98175.00;4995605;28;19917;-75
2020/12/07 07:02:22;;;;;;;13.90;7.10;;;;;;;20.66;39.33;98175.69;5027149;28;20278;-73
2020/12/07 07:04:55;;;;;;;11.70;7.35;;;;;;;20.64;39.23;98176.72;5010780;28;20045;-76
2020/12/07 07:07:23;;;;;;;18.25;7.35;;;;;;;20.66;39.34;98185.38;5011836;28;20029;-79
2020/12/07 07:09:49;;;;;;;12.80;7.22;;;;;;;20.69;39.49;98185.22;5011847;28;20109;-78
2020/12/07 07:12:15;;;;;;;13.60;6.93;;;;;;;20.69;39.34;98183.41;5010008;28;20120;-78
2020/12/07 07:14:42;;;;;;;30.48;7.90;;;;;;;20.69;39.41;98186.06;5010581;28;20117;-80
2020/12/07 07:17:08;;;;;;;27.00;6.85;;;;;;;20.71;39.50;98180.69;5011790;28;20056;-76
2020/12/07 07:19:34;;;;;;;15.48;8.27;;;;;;;20.67;39.49;98182.66;5014063;28;20542;-79
2020/12/07 07:21:59;;;;;;;12.05;7.13;;;;;;;20.64;39.49;98177.56;5015675;28;20045;-78
2020/12/07 07:24:30;;;;;;;15.10;7.80;;;;;;;20.61;39.35;98180.38;5013999;28;20570;-73
2020/12/07 07:27:04;;;;;;;15.27;7.00;;;;;;;20.61;39.64;98188.28;4999091;28;20165;-73
2020/12/07 07:29:30;;;;;;;13.63;6.47;;;;;;;20.63;39.44;98182.91;5015819;28;20026;-73
2020/12/07 07:31:57;;;;;;;11.30;6.30;;;;;;;20.61;39.31;98180.38;5006723;28;20041;-76
2020/12/07 07:34:23;;;;;;;11.25;6.40;;;;;;;20.61;39.32;98183.00;5010815;28;20034;-74
2020/12/07 07:36:49;;;;;;;14.10;7.93;;;;;;;20.56;39.38;98181.53;4998996;28;20569;-75
2020/12/07 07:39:14;;;;;;;12.77;7.32;;;;;;;20.59;39.19;98184.00;5014778;28;20398;-75
2020/12/07 07:41:42;;;;;;;16.02;6.88;;;;;;;20.52;38.79;98181.72;5009107;28;20030;-72
2020/12/07 07:44:07;;;;;;;15.77;7.13;;;;;;;20.51;39.04;98184.44;4995898;28;20041;-78
2020/12/07 07:46:34;;;;;;;20.13;7.95;;;;;;;20.51;38.79;98182.66;4995725;28;20030;-79
2020/12/07 08:00:21;;;;;;;15.25;6.63;;;;;;;20.53;38.84;98170.28;5003436;28;20038;-76
2020/12/07 08:17:12;;;;;;;11.65;5.30;;;;;;;20.55;38.69;98185.97;4994851;28;20062;-75
2020/12/07 08:19:38;;;;;;;7.57;4.90;;;;;;;20.57;38.87;98186.72;4994445;28;20082;-73
2020/12/07 08:22:17;;;;;;;10.52;5.03;;;;;;;20.58;38.83;98195.47;4994659;28;20463;-75
2020/12/07 08:24:56;;;;;;;13.82;5.38;;;;;;;20.59;38.73;98200.66;4994713;28;20093;-73
2020/12/07 08:27:22;;;;;;;9.35;5.70;;;;;;;20.61;38.67;98195.28;4994559;28;20035;-73
2020/12/07 08:29:47;;;;;;;11.90;4.88;;;;;;;20.61;38.73;98195.28;4998098;28;20045;-72
2020/12/07 08:32:23;;;;;;;6.63;4.75;;;;;;;20.61;38.71;98196.16;5014576;28;20042;-78
2020/12/07 08:34:49;;;;;;;8.68;5.53;;;;;;;20.64;38.57;98197.78;5014339;28;20042;-73
2020/12/07 08:37:16;;;;;;;11.40;5.65;;;;;;;20.71;38.43;98208.81;5014162;28;20072;-73
2020/12/07 08:39:41;;;;;;;10.20;5.13;;;;;;;20.73;38.59;98210.41;5014236;28;20041;-74
2020/12/07 08:42:07;;;;;;;7.75;4.47;;;;;;;20.76;38.65;98218.19;5000883;28;20049;-74
2020/12/07 08:44:32;;;;;;;13.25;5.43;;;;;;;20.78;38.52;98216.31;4994811;28;20476;-75
2020/12/07 08:46:58;;;;;;;9.90;4.72;;;;;;;20.82;38.65;98220.47;4994634;28;20038;-78
2020/12/07 08:49:23;;;;;;;12.00;4.90;;;;;;;20.87;38.52;98230.75;4994114;28;20507;-75
2020/12/07 08:51:48;;;;;;;13.90;5.50;;;;;;;20.91;38.59;98232.28;4994578;28;20089;-72
2020/12/07 08:54:14;;;;;;;15.13;6.10;;;;;;;20.94;38.50;98228.63;4994573;28;20034;-73
2020/12/07 08:56:40;;;;;;;24.23;6.15;;;;;;;20.93;38.81;98240.97;4994321;28;20030;-75
2020/12/07 08:59:06;;;;;;;15.20;5.38;;;;;;;20.90;38.70;98235.84;4982286;28;20034;-72
2020/12/07 09:01:31;;;;;;;15.88;5.20;;;;;;;20.86;38.80;98233.47;5006970;28;20038;-74
2020/12/07 09:03:57;;;;;;;12.57;5.18;;;;;;;20.85;38.72;98237.88;5013462;28;20046;-74
2020/12/07 09:06:23;;;;;;;9.65;5.07;;;;;;;20.84;38.70;98237.03;5012312;28;20048;-80
2020/12/07 09:08:48;;;;;;;11.75;5.07;;;;;;;20.83;38.74;98243.25;5012135;28;20034;-81
2020/12/07 09:11:18;;;;;;;12.85;4.78;;;;;;;20.81;38.85;98250.38;5013470;28;20033;-77
2020/12/07 09:13:43;;;;;;;15.20;5.45;;;;;;;20.81;38.59;98250.38;5013290;28;20034;-74
2020/12/07 09:16:09;;;;;;;11.40;4.35;;;;;;;20.81;38.75;98252.13;5013434;28;20026;-75
2020/12/07 09:18:35;;;;;;;16.02;5.22;;;;;;;20.82;38.75;98245.94;5012887;28;20034;-80
2020/12/07 09:21:04;;;;;;;13.95;5.60;;;;;;;20.80;38.82;98253.94;5013155;28;20044;-77
2020/12/07 09:23:29;;;;;;;7.90;4.80;;;;;;;20.80;38.75;98255.69;5013199;28;20038;-75
2020/12/07 09:25:54;;;;;;;13.88;4.65;;;;;;;20.79;38.81;98260.13;5001832;28;20454;-74
2020/12/07 09:28:20;;;;;;;11.25;5.13;;;;;;;20.79;38.77;98257.50;4993590;28;20045;-73
2020/12/07 09:30:46;;;;;;;7.47;5.20;;;;;;;20.81;38.71;98265.31;4993300;28;20141;-72
2020/12/07 09:33:11;;;;;;;9.98;5.13;;;;;;;20.79;38.72;98264.53;4993085;28;20080;-75
2020/12/07 09:35:40;;;;;;;8.68;4.70;;;;;;;20.80;38.72;98271.50;4993489;28;20074;-75
2020/12/07 09:38:05;;;;;;;14.63;4.85;;;;;;;20.80;38.75;98269.72;4993564;28;20042;-73
2020/12/07 09:40:31;;;;;;;11.90;5.30;;;;;;;20.82;38.76;98277.53;4992516;28;20038;-80
2020/12/07 09:42:56;;;;;;;7.00;4.65;;;;;;;20.80;38.67;98269.72;4992398;28;20054;-74
2020/12/07 09:45:21;;;;;;;7.38;4.95;;;;;;;20.80;39.08;98275.00;4993246;28;20092;-75
2020/12/07 09:47:47;;;;;;;9.40;4.60;;;;;;;20.84;38.69;98270.41;4993051;28;20168;-72
2020/12/07 09:50:13;;;;;;;7.38;5.07;;;;;;;20.81;38.99;98266.16;4993392;28;20069;-74
2020/12/07 09:52:39;;;;;;;6.13;3.97;;;;;;;20.81;38.67;98260.91;4993542;28;20114;-76
2020/12/07 09:55:05;;;;;;;6.97;4.18;;;;;;;20.81;38.70;98266.16;4993156;28;20180;-74
2020/12/07 09:57:31;;;;;;;8.25;4.60;;;;;;;20.81;38.77;98260.03;4992856;28;20078;-72
2020/12/07 09:59:56;;;;;;;12.93;5.15;;;;;;;20.80;38.63;98266.22;4992956;28;20577;-72
2020/12/07 10:02:23;;;;;;;8.10;5.43;;;;;;;20.81;38.71;98267.94;4993236;28;20046;-76
2020/12/07 10:04:48;;;;;;;7.95;4.95;;;;;;;20.78;38.73;98265.50;4993158;28;20141;-76
2020/12/07 10:07:14;;;;;;;8.35;4.90;;;;;;;20.79;38.47;98264.53;4992822;28;20495;-75
2020/12/07 10:09:39;;;;;;;6.82;4.78;;;;;;;20.81;38.40;98265.31;4991338;28;20034;-72
2020/12/07 10:12:05;;;;;;;5.40;4.80;;;;;;;20.77;38.24;98263.78;4992482;28;20480;-74
2020/12/07 10:14:31;;;;;;;7.78;5.70;;;;;;;20.77;38.38;98272.53;4975515;28;20446;-77
2020/12/07 10:16:58;;;;;;;8.45;6.60;;;;;;;20.76;38.33;98265.56;4991590;28;20053;-76
2020/12/07 10:19:24;;;;;;;8.38;6.57;;;;;;;20.87;38.27;98270.25;5000221;28;20042;-75
2020/12/07 10:21:49;;;;;;;10.38;6.80;;;;;;;20.94;38.38;98276.03;4992720;28;20046;-77
2020/12/07 10:24:15;;;;;;;11.63;8.13;;;;;;;20.98;38.35;98273.13;4992353;28;20036;-76
2020/12/07 10:26:40;;;;;;;15.25;9.65;;;;;;;21.04;38.47;98271.09;4991198;28;20101;-74
2020/12/07 10:29:06;;;;;;;19.38;9.80;;;;;;;21.10;38.94;98271.59;4992643;28;20057;-77
2020/12/07 10:31:31;;;;;;;16.15;9.98;;;;;;;21.17;39.32;98272.13;4990841;28;20129;-72
2020/12/07 10:33:56;;;;;;;14.90;9.95;;;;;;;21.22;39.67;98271.84;4991414;28;20406;-74
2020/12/07 10:36:24;;;;;;;15.02;9.98;;;;;;;21.23;39.93;98274.41;4992336;28;20084;-75
2020/12/07 10:38:50;;;;;;;14.68;10.18;;;;;;;21.23;40.42;98269.16;4992528;28;20444;-73
2020/12/07 10:41:16;;;;;;;18.02;10.82;;;;;;;21.26;40.80;98278.66;4992010;28;20644;-73
2020/12/07 10:43:43;;;;;;;15.05;10.45;;;;;;;21.26;40.88;98266.31;4992136;28;20042;-74
2020/12/07 10:46:13;;;;;;;14.45;10.50;;;;;;;21.29;40.99;98271.41;4991808;28;20072;-78
2020/12/07 10:48:39;;;;;;;13.95;10.02;;;;;;;21.34;41.47;98267.69;5007178;28;20450;-76
2020/12/07 10:51:04;;;;;;;16.30;9.95;;;;;;;21.38;41.38;98266.59;5006677;28;20030;-76
2020/12/07 10:53:29;;;;;;;12.95;10.30;;;;;;;21.40;42.09;98267.34;5011064;28;20034;-77
2020/12/07 10:55:55;;;;;;;13.35;10.27;;;;;;;21.43;42.05;98265.38;5011747;28;20510;-78
2020/12/07 10:58:21;;;;;;;13.48;9.73;;;;;;;21.48;42.34;98264.28;4994950;28;20036;-79
2020/12/07 11:00:47;;;;;;;13.00;10.23;;;;;;;21.51;42.29;98278.13;4991572;28;20502;-76
2020/12/07 11:03:13;;;;;;;12.20;8.75;;;;;;;21.50;42.27;98268.50;4992410;28;20058;-77
2020/12/07 11:05:39;;;;;;;11.93;8.13;;;;;;;21.49;41.88;98269.44;5003109;28;20066;-76
2020/12/07 11:08:29;;;;;;;11.80;8.65;;;;;;;21.47;41.96;98270.47;4992225;28;20023;-75
2020/12/07 11:10:55;;;;;;;16.23;9.65;;;;;;;21.47;41.81;98273.13;4991367;28;20046;-77
2020/12/07 11:13:31;;;;;;;13.25;9.05;;;;;;;21.47;41.80;98270.47;4991751;28;20501;-75
2020/12/07 11:16:01;;;;;;;11.75;8.50;;;;;;;21.48;41.74;98266.91;4992333;28;20053;-76
2020/12/07 11:18:30;;;;;;;12.68;8.38;;;;;;;21.46;41.64;98272.25;4992330;28;20093;-77
2020/12/07 11:20:57;;;;;;;11.43;8.45;;;;;;;21.42;41.28;98268.94;4992020;28;20030;-73
2020/12/07 11:23:23;;;;;;;10.13;7.25;;;;;;;21.39;41.33;98261.22;4992102;28;20050;-79
2020/12/07 11:25:49;;;;;;;11.63;8.13;;;;;;;21.42;40.90;98265.44;4991476;28;20105;-78
2020/12/07 11:28:14;;;;;;;11.43;7.82;;;;;;;21.43;40.45;98262.75;4991315;28;20177;-77
2020/12/07 11:30:40;;;;;;;11.75;6.95;;;;;;;21.44;40.18;98264.44;4991199;28;20530;-76
2020/12/07 11:33:05;;;;;;;8.90;6.57;;;;;;;21.41;40.10;98261.13;4991901;28;20046;-77
2020/12/07 11:35:30;;;;;;;8.68;6.65;;;;;;;21.40;40.09;98262.06;4992003;28;20143;-76
2020/12/07 11:38:41;;;;;;;8.88;6.50;;;;;;;21.39;39.96;98258.56;4995970;28;20041;-78
2020/12/07 11:45:44;;;;;;;10.00;5.63;;;;;;;21.34;39.84;98257.16;5008095;28;20136;-75
2020/12/07 11:48:10;;;;;;;10.30;5.15;;;;;;;21.39;39.81;98258.56;5009523;28;20030;-75
2020/12/07 11:50:36;;;;;;;7.28;5.25;;;;;;;21.40;39.70;98262.91;4998638;28;20074;-76
2020/12/07 11:53:02;;;;;;;12.10;5.18;;;;;;;21.40;39.70;98256.81;4992776;28;20528;-74
2020/12/07 11:55:27;;;;;;;10.48;5.05;;;;;;;21.39;39.82;98260.38;4994463;28;20045;-76
2020/12/07 11:57:53;;;;;;;6.75;4.45;;;;;;;21.37;39.53;98260.44;4989454;28;20414;-73
2020/12/07 12:00:18;;;;;;;8.05;4.53;;;;;;;21.34;39.69;98263.25;4989543;28;20034;-80
2020/12/07 12:02:44;;;;;;;7.97;4.72;;;;;;;21.37;39.69;98260.44;4989767;28;20065;-74